sensor_id;sensor_type;location;lat;lon;timestamp;P1;durP1;ratioP1;P2;durP2;ratioP2
42096;SDS011;27754;45.414;11.084;2023-07-31T00:01:56;3.65;;;3.35;;
42096;SDS011;27754;45.414;11.084;2023-07-31T00:04:23;4.95;;;3.90;;
42096;SDS011;27754;45.414;11.084;2023-07-31T00:06:50;4.38;;;3.00;;
42096;SDS011;27754;45.414;11.084;2023-07-31T00:09:17;3.85;;;3.33;;
42096;SDS011;27754;45.414;11.084;2023-07-31T00:11:44;4.22;;;3.10;;
42096;SDS011;27754;45.414;11.084;2023-07-31T00:14:11;6.85;;;3.65;;
42096;SDS011;27754;45.414;11.084;2023-07-31T00:16:38;5.50;;;3.40;;
42096;SDS011;27754;45.414;11.084;2023-07-31T00:19:05;6.75;;;3.53;;
42096;SDS011;27754;45.414;11.084;2023-07-31T00:21:32;4.95;;;3.40;;
42096;SDS011;27754;45.414;11.084;2023-07-31T00:23:59;3.72;;;3.25;;
42096;SDS011;27754;45.414;11.084;2023-07-31T00:26:26;4.00;;;3.17;;
42096;SDS011;27754;45.414;11.084;2023-07-31T00:28:53;5.10;;;3.22;;
42096;SDS011;27754;45.414;11.084;2023-07-31T00:31:20;4.00;;;3.05;;
42096;SDS011;27754;45.414;11.084;2023-07-31T00:33:47;5.50;;;3.03;;
42096;SDS011;27754;45.414;11.084;2023-07-31T00:36:14;3.85;;;3.03;;
42096;SDS011;27754;45.414;11.084;2023-07-31T00:38:41;5.20;;;3.30;;
42096;SDS011;27754;45.414;11.084;2023-07-31T00:41:08;4.22;;;3.83;;
42096;SDS011;27754;45.414;11.084;2023-07-31T00:43:35;4.78;;;3.53;;
42096;SDS011;27754;45.414;11.084;2023-07-31T00:46:02;3.95;;;3.55;;
42096;SDS011;27754;45.414;11.084;2023-07-31T00:48:30;7.75;;;3.72;;
42096;SDS011;27754;45.414;11.084;2023-07-31T00:50:58;4.32;;;3.38;;
42096;SDS011;27754;45.414;11.084;2023-07-31T00:53:25;3.92;;;3.35;;
42096;SDS011;27754;45.414;11.084;2023-07-31T00:55:52;4.80;;;3.10;;
42096;SDS011;27754;45.414;11.084;2023-07-31T00:58:19;4.65;;;3.10;;
42096;SDS011;27754;45.414;11.084;2023-07-31T01:00:46;4.05;;;3.28;;
42096;SDS011;27754;45.414;11.084;2023-07-31T01:03:14;4.65;;;3.13;;
42096;SDS011;27754;45.414;11.084;2023-07-31T01:08:42;5.35;;;3.55;;
42096;SDS011;27754;45.414;11.084;2023-07-31T01:11:28;4.85;;;3.40;;
42096;SDS011;27754;45.414;11.084;2023-07-31T01:13:57;5.55;;;3.95;;
42096;SDS011;27754;45.414;11.084;2023-07-31T01:16:25;4.95;;;3.70;;
42096;SDS011;27754;45.414;11.084;2023-07-31T01:18:53;5.30;;;4.00;;
42096;SDS011;27754;45.414;11.084;2023-07-31T01:26:42;4.13;;;3.72;;
42096;SDS011;27754;45.414;11.084;2023-07-31T01:29:20;5.28;;;3.85;;
42096;SDS011;27754;45.414;11.084;2023-07-31T01:31:56;4.40;;;3.65;;
42096;SDS011;27754;45.414;11.084;2023-07-31T01:34:27;7.47;;;3.92;;
42096;SDS011;27754;45.414;11.084;2023-07-31T01:36:56;5.13;;;4.00;;
42096;SDS011;27754;45.414;11.084;2023-07-31T01:39:24;5.75;;;4.28;;
42096;SDS011;27754;45.414;11.084;2023-07-31T01:41:51;7.15;;;4.28;;
42096;SDS011;27754;45.414;11.084;2023-07-31T01:44:19;5.53;;;4.45;;
42096;SDS011;27754;45.414;11.084;2023-07-31T01:46:46;4.63;;;4.10;;
42096;SDS011;27754;45.414;11.084;2023-07-31T01:49:14;9.23;;;5.05;;
42096;SDS011;27754;45.414;11.084;2023-07-31T01:51:41;5.40;;;4.82;;
42096;SDS011;27754;45.414;11.084;2023-07-31T01:54:08;6.18;;;4.70;;
42096;SDS011;27754;45.414;11.084;2023-07-31T01:56:35;7.05;;;4.65;;
42096;SDS011;27754;45.414;11.084;2023-07-31T01:59:02;5.88;;;5.32;;
42096;SDS011;27754;45.414;11.084;2023-07-31T02:01:29;5.55;;;4.93;;
42096;SDS011;27754;45.414;11.084;2023-07-31T02:03:57;7.47;;;4.75;;
42096;SDS011;27754;45.414;11.084;2023-07-31T02:06:24;5.50;;;4.82;;
42096;SDS011;27754;45.414;11.084;2023-07-31T02:08:52;6.03;;;4.28;;
42096;SDS011;27754;45.414;11.084;2023-07-31T02:11:18;8.07;;;5.28;;
42096;SDS011;27754;45.414;11.084;2023-07-31T02:13:48;7.40;;;6.22;;
42096;SDS011;27754;45.414;11.084;2023-07-31T02:16:15;9.43;;;7.07;;
42096;SDS011;27754;45.414;11.084;2023-07-31T02:18:43;11.75;;;7.15;;
42096;SDS011;27754;45.414;11.084;2023-07-31T02:21:10;8.50;;;6.72;;
42096;SDS011;27754;45.414;11.084;2023-07-31T02:23:37;6.70;;;6.10;;
42096;SDS011;27754;45.414;11.084;2023-07-31T02:26:04;6.47;;;5.70;;
42096;SDS011;27754;45.414;11.084;2023-07-31T02:28:31;9.15;;;5.43;;
42096;SDS011;27754;45.414;11.084;2023-07-31T02:30:58;7.97;;;5.30;;
42096;SDS011;27754;45.414;11.084;2023-07-31T02:33:26;6.72;;;5.65;;
42096;SDS011;27754;45.414;11.084;2023-07-31T02:35:53;6.88;;;6.07;;
42096;SDS011;27754;45.414;11.084;2023-07-31T02:38:21;8.25;;;6.35;;
42096;SDS011;27754;45.414;11.084;2023-07-31T02:40:48;8.30;;;6.50;;
42096;SDS011;27754;45.414;11.084;2023-07-31T02:43:15;7.20;;;5.82;;
42096;SDS011;27754;45.414;11.084;2023-07-31T02:45:42;8.85;;;5.95;;
42096;SDS011;27754;45.414;11.084;2023-07-31T02:48:10;7.18;;;6.32;;
42096;SDS011;27754;45.414;11.084;2023-07-31T02:50:37;8.43;;;5.78;;
42096;SDS011;27754;45.414;11.084;2023-07-31T02:53:04;7.18;;;6.47;;
42096;SDS011;27754;45.414;11.084;2023-07-31T02:55:31;8.80;;;6.53;;
42096;SDS011;27754;45.414;11.084;2023-07-31T02:57:58;7.50;;;6.20;;
42096;SDS011;27754;45.414;11.084;2023-07-31T03:00:25;6.93;;;5.97;;
42096;SDS011;27754;45.414;11.084;2023-07-31T03:02:52;7.10;;;5.80;;
42096;SDS011;27754;45.414;11.084;2023-07-31T03:05:19;7.30;;;5.55;;
42096;SDS011;27754;45.414;11.084;2023-07-31T03:07:47;11.70;;;6.07;;
42096;SDS011;27754;45.414;11.084;2023-07-31T03:10:14;17.70;;;6.15;;
42096;SDS011;27754;45.414;11.084;2023-07-31T03:12:41;7.18;;;6.45;;
42096;SDS011;27754;45.414;11.084;2023-07-31T03:15:08;7.47;;;6.18;;
42096;SDS011;27754;45.414;11.084;2023-07-31T03:17:35;7.10;;;6.40;;
42096;SDS011;27754;45.414;11.084;2023-07-31T03:20:03;8.80;;;7.05;;
42096;SDS011;27754;45.414;11.084;2023-07-31T03:22:30;10.55;;;6.55;;
42096;SDS011;27754;45.414;11.084;2023-07-31T03:24:57;6.85;;;5.90;;
42096;SDS011;27754;45.414;11.084;2023-07-31T03:27:24;6.78;;;5.70;;
42096;SDS011;27754;45.414;11.084;2023-07-31T03:29:51;6.43;;;5.82;;
42096;SDS011;27754;45.414;11.084;2023-07-31T03:32:18;7.25;;;5.43;;
42096;SDS011;27754;45.414;11.084;2023-07-31T03:34:45;7.40;;;5.53;;
42096;SDS011;27754;45.414;11.084;2023-07-31T03:37:12;9.38;;;6.93;;
42096;SDS011;27754;45.414;11.084;2023-07-31T03:39:39;9.05;;;8.15;;
42096;SDS011;27754;45.414;11.084;2023-07-31T03:42:06;10.30;;;9.05;;
42096;SDS011;27754;45.414;11.084;2023-07-31T03:44:34;11.52;;;10.10;;
42096;SDS011;27754;45.414;11.084;2023-07-31T03:47:01;11.02;;;10.02;;
42096;SDS011;27754;45.414;11.084;2023-07-31T03:49:28;13.52;;;8.38;;
42096;SDS011;27754;45.414;11.084;2023-07-31T03:51:55;8.75;;;7.88;;
42096;SDS011;27754;45.414;11.084;2023-07-31T03:54:22;9.68;;;8.68;;
42096;SDS011;27754;45.414;11.084;2023-07-31T03:56:49;9.60;;;8.27;;
42096;SDS011;27754;45.414;11.084;2023-07-31T03:59:16;10.45;;;8.57;;
42096;SDS011;27754;45.414;11.084;2023-07-31T04:01:43;11.73;;;7.72;;
42096;SDS011;27754;45.414;11.084;2023-07-31T04:04:10;12.73;;;7.47;;
42096;SDS011;27754;45.414;11.084;2023-07-31T04:06:37;12.30;;;7.85;;
42096;SDS011;27754;45.414;11.084;2023-07-31T04:09:04;8.68;;;7.05;;
42096;SDS011;27754;45.414;11.084;2023-07-31T04:11:31;10.77;;;7.38;;
42096;SDS011;27754;45.414;11.084;2023-07-31T04:13:58;11.27;;;7.03;;
42096;SDS011;27754;45.414;11.084;2023-07-31T04:16:25;11.30;;;7.50;;
42096;SDS011;27754;45.414;11.084;2023-07-31T04:18:52;10.15;;;7.20;;
42096;SDS011;27754;45.414;11.084;2023-07-31T04:21:19;9.25;;;6.70;;
42096;SDS011;27754;45.414;11.084;2023-07-31T04:23:46;11.07;;;7.07;;
42096;SDS011;27754;45.414;11.084;2023-07-31T04:26:13;13.30;;;6.88;;
42096;SDS011;27754;45.414;11.084;2023-07-31T04:28:40;7.25;;;5.80;;
42096;SDS011;27754;45.414;11.084;2023-07-31T04:31:07;8.38;;;6.00;;
42096;SDS011;27754;45.414;11.084;2023-07-31T04:33:35;6.70;;;5.90;;
42096;SDS011;27754;45.414;11.084;2023-07-31T04:36:02;7.50;;;5.88;;
42096;SDS011;27754;45.414;11.084;2023-07-31T04:38:29;7.25;;;5.88;;
42096;SDS011;27754;45.414;11.084;2023-07-31T04:40:56;6.28;;;5.65;;
42096;SDS011;27754;45.414;11.084;2023-07-31T04:43:23;6.53;;;5.50;;
42096;SDS011;27754;45.414;11.084;2023-07-31T04:45:50;7.75;;;6.00;;
42096;SDS011;27754;45.414;11.084;2023-07-31T04:48:17;8.70;;;6.07;;
42096;SDS011;27754;45.414;11.084;2023-07-31T04:50:44;7.30;;;5.82;;
42096;SDS011;27754;45.414;11.084;2023-07-31T04:53:11;7.00;;;6.40;;
42096;SDS011;27754;45.414;11.084;2023-07-31T04:55:38;7.53;;;5.80;;
42096;SDS011;27754;45.414;11.084;2023-07-31T04:58:05;8.70;;;6.15;;
42096;SDS011;27754;45.414;11.084;2023-07-31T05:00:32;7.30;;;6.40;;
42096;SDS011;27754;45.414;11.084;2023-07-31T05:02:59;6.78;;;6.00;;
42096;SDS011;27754;45.414;11.084;2023-07-31T05:05:26;8.38;;;5.63;;
42096;SDS011;27754;45.414;11.084;2023-07-31T05:07:53;8.82;;;5.72;;
42096;SDS011;27754;45.414;11.084;2023-07-31T05:10:20;7.32;;;5.72;;
42096;SDS011;27754;45.414;11.084;2023-07-31T05:12:47;7.95;;;5.50;;
42096;SDS011;27754;45.414;11.084;2023-07-31T05:15:14;8.98;;;5.75;;
42096;SDS011;27754;45.414;11.084;2023-07-31T05:17:42;6.57;;;5.45;;
42096;SDS011;27754;45.414;11.084;2023-07-31T05:20:09;9.70;;;5.25;;
42096;SDS011;27754;45.414;11.084;2023-07-31T05:22:37;8.75;;;5.47;;
42096;SDS011;27754;45.414;11.084;2023-07-31T05:25:04;6.13;;;5.53;;
42096;SDS011;27754;45.414;11.084;2023-07-31T05:27:31;8.63;;;5.50;;
42096;SDS011;27754;45.414;11.084;2023-07-31T05:29:58;11.85;;;5.50;;
42096;SDS011;27754;45.414;11.084;2023-07-31T05:32:25;6.32;;;5.55;;
42096;SDS011;27754;45.414;11.084;2023-07-31T05:34:53;9.25;;;5.50;;
42096;SDS011;27754;45.414;11.084;2023-07-31T05:37:20;7.72;;;5.38;;
42096;SDS011;27754;45.414;11.084;2023-07-31T05:39:48;9.60;;;4.85;;
42096;SDS011;27754;45.414;11.084;2023-07-31T05:42:15;10.32;;;6.32;;
42096;SDS011;27754;45.414;11.084;2023-07-31T05:44:42;8.57;;;6.57;;
42096;SDS011;27754;45.414;11.084;2023-07-31T05:47:09;7.65;;;6.68;;
42096;SDS011;27754;45.414;11.084;2023-07-31T05:49:37;9.70;;;7.25;;
42096;SDS011;27754;45.414;11.084;2023-07-31T05:52:04;10.75;;;7.65;;
42096;SDS011;27754;45.414;11.084;2023-07-31T05:54:31;8.48;;;7.18;;
42096;SDS011;27754;45.414;11.084;2023-07-31T05:56:59;9.40;;;8.30;;
42096;SDS011;27754;45.414;11.084;2023-07-31T05:59:26;10.32;;;9.30;;
42096;SDS011;27754;45.414;11.084;2023-07-31T06:01:53;15.93;;;10.13;;
42096;SDS011;27754;45.414;11.084;2023-07-31T06:04:20;15.80;;;10.75;;
42096;SDS011;27754;45.414;11.084;2023-07-31T06:06:51;11.95;;;10.68;;
42096;SDS011;27754;45.414;11.084;2023-07-31T06:09:18;12.85;;;9.38;;
42096;SDS011;27754;45.414;11.084;2023-07-31T06:11:46;10.45;;;8.65;;
42096;SDS011;27754;45.414;11.084;2023-07-31T06:14:14;12.23;;;8.02;;
42096;SDS011;27754;45.414;11.084;2023-07-31T06:16:41;9.60;;;8.05;;
42096;SDS011;27754;45.414;11.084;2023-07-31T06:19:08;8.80;;;7.90;;
42096;SDS011;27754;45.414;11.084;2023-07-31T06:21:35;12.60;;;9.48;;
42096;SDS011;27754;45.414;11.084;2023-07-31T06:24:04;10.68;;;7.88;;
42096;SDS011;27754;45.414;11.084;2023-07-31T06:26:32;7.72;;;6.93;;
42096;SDS011;27754;45.414;11.084;2023-07-31T06:28:59;14.32;;;7.18;;
42096;SDS011;27754;45.414;11.084;2023-07-31T06:31:26;11.07;;;8.73;;
42096;SDS011;27754;45.414;11.084;2023-07-31T06:33:53;10.45;;;8.52;;
42096;SDS011;27754;45.414;11.084;2023-07-31T06:36:21;11.95;;;8.27;;
42096;SDS011;27754;45.414;11.084;2023-07-31T06:38:48;11.88;;;8.73;;
42096;SDS011;27754;45.414;11.084;2023-07-31T06:41:15;13.45;;;9.20;;
42096;SDS011;27754;45.414;11.084;2023-07-31T06:43:42;10.52;;;8.90;;
42096;SDS011;27754;45.414;11.084;2023-07-31T06:46:09;9.98;;;8.98;;
42096;SDS011;27754;45.414;11.084;2023-07-31T06:48:37;13.23;;;8.13;;
42096;SDS011;27754;45.414;11.084;2023-07-31T06:51:04;10.15;;;8.77;;
42096;SDS011;27754;45.414;11.084;2023-07-31T06:53:31;9.65;;;8.00;;
42096;SDS011;27754;45.414;11.084;2023-07-31T06:55:58;11.70;;;7.72;;
42096;SDS011;27754;45.414;11.084;2023-07-31T06:58:25;10.52;;;8.30;;
42096;SDS011;27754;45.414;11.084;2023-07-31T07:00:52;11.57;;;8.60;;
42096;SDS011;27754;45.414;11.084;2023-07-31T07:03:19;9.27;;;8.35;;
42096;SDS011;27754;45.414;11.084;2023-07-31T07:05:46;11.43;;;8.55;;
42096;SDS011;27754;45.414;11.084;2023-07-31T07:08:14;11.48;;;7.85;;
42096;SDS011;27754;45.414;11.084;2023-07-31T07:10:41;11.32;;;7.60;;
42096;SDS011;27754;45.414;11.084;2023-07-31T07:13:08;9.40;;;7.57;;
42096;SDS011;27754;45.414;11.084;2023-07-31T07:15:35;9.35;;;7.72;;
42096;SDS011;27754;45.414;11.084;2023-07-31T07:18:02;7.78;;;6.80;;
42096;SDS011;27754;45.414;11.084;2023-07-31T07:20:30;7.60;;;6.65;;
42096;SDS011;27754;45.414;11.084;2023-07-31T07:22:57;7.80;;;6.80;;
42096;SDS011;27754;45.414;11.084;2023-07-31T07:25:24;11.05;;;6.50;;
42096;SDS011;27754;45.414;11.084;2023-07-31T07:27:51;15.63;;;8.25;;
42096;SDS011;27754;45.414;11.084;2023-07-31T07:30:18;11.95;;;8.63;;
42096;SDS011;27754;45.414;11.084;2023-07-31T07:32:46;19.35;;;9.20;;
42096;SDS011;27754;45.414;11.084;2023-07-31T07:35:13;18.25;;;8.85;;
42096;SDS011;27754;45.414;11.084;2023-07-31T07:37:40;11.40;;;7.93;;
42096;SDS011;27754;45.414;11.084;2023-07-31T07:40:08;22.50;;;8.63;;
42096;SDS011;27754;45.414;11.084;2023-07-31T07:42:35;8.77;;;4.47;;
42096;SDS011;27754;45.414;11.084;2023-07-31T07:45:02;6.72;;;4.35;;
42096;SDS011;27754;45.414;11.084;2023-07-31T07:47:29;10.88;;;4.25;;
42096;SDS011;27754;45.414;11.084;2023-07-31T07:49:56;8.23;;;4.15;;
42096;SDS011;27754;45.414;11.084;2023-07-31T07:52:23;8.68;;;4.20;;
42096;SDS011;27754;45.414;11.084;2023-07-31T07:54:50;6.38;;;2.80;;
42096;SDS011;27754;45.414;11.084;2023-07-31T07:57:17;4.50;;;2.05;;
42096;SDS011;27754;45.414;11.084;2023-07-31T07:59:44;3.17;;;2.08;;
42096;SDS011;27754;45.414;11.084;2023-07-31T08:02:11;4.85;;;2.00;;
42096;SDS011;27754;45.414;11.084;2023-07-31T08:04:38;2.88;;;1.98;;
42096;SDS011;27754;45.414;11.084;2023-07-31T08:07:05;2.85;;;1.90;;
42096;SDS011;27754;45.414;11.084;2023-07-31T08:09:32;2.22;;;1.52;;
42096;SDS011;27754;45.414;11.084;2023-07-31T08:11:59;4.43;;;2.10;;
42096;SDS011;27754;45.414;11.084;2023-07-31T08:14:29;3.47;;;2.08;;
42096;SDS011;27754;45.414;11.084;2023-07-31T08:16:58;3.38;;;2.03;;
42096;SDS011;27754;45.414;11.084;2023-07-31T08:19:26;3.83;;;1.92;;
42096;SDS011;27754;45.414;11.084;2023-07-31T08:21:53;9.25;;;3.35;;
42096;SDS011;27754;45.414;11.084;2023-07-31T08:24:23;3.35;;;2.40;;
42096;SDS011;27754;45.414;11.084;2023-07-31T08:26:51;4.20;;;2.30;;
42096;SDS011;27754;45.414;11.084;2023-07-31T08:29:18;2.53;;;1.80;;
42096;SDS011;27754;45.414;11.084;2023-07-31T08:31:45;4.35;;;1.52;;
42096;SDS011;27754;45.414;11.084;2023-07-31T08:34:12;13.48;;;4.63;;
42096;SDS011;27754;45.414;11.084;2023-07-31T08:36:39;3.35;;;1.48;;
42096;SDS011;27754;45.414;11.084;2023-07-31T08:39:06;3.15;;;1.30;;
42096;SDS011;27754;45.414;11.084;2023-07-31T08:41:39;2.05;;;1.48;;
42096;SDS011;27754;45.414;11.084;2023-07-31T08:44:09;2.58;;;1.65;;
42096;SDS011;27754;45.414;11.084;2023-07-31T08:46:38;2.70;;;1.58;;
42096;SDS011;27754;45.414;11.084;2023-07-31T08:49:06;2.40;;;1.50;;
42096;SDS011;27754;45.414;11.084;2023-07-31T08:51:34;5.75;;;1.90;;
42096;SDS011;27754;45.414;11.084;2023-07-31T08:54:02;2.10;;;1.50;;
42096;SDS011;27754;45.414;11.084;2023-07-31T08:56:32;2.25;;;1.45;;
42096;SDS011;27754;45.414;11.084;2023-07-31T08:59:01;2.30;;;1.50;;
42096;SDS011;27754;45.414;11.084;2023-07-31T09:01:30;3.90;;;1.60;;
42096;SDS011;27754;45.414;11.084;2023-07-31T09:04:02;2.58;;;1.50;;
42096;SDS011;27754;45.414;11.084;2023-07-31T09:06:31;3.10;;;1.33;;
42096;SDS011;27754;45.414;11.084;2023-07-31T09:09:00;3.38;;;1.50;;
42096;SDS011;27754;45.414;11.084;2023-07-31T09:11:27;2.90;;;1.50;;
42096;SDS011;27754;45.414;11.084;2023-07-31T09:13:54;3.30;;;1.30;;
42096;SDS011;27754;45.414;11.084;2023-07-31T09:16:27;2.13;;;1.10;;
42096;SDS011;27754;45.414;11.084;2023-07-31T09:18:57;1.58;;;1.30;;
42096;SDS011;27754;45.414;11.084;2023-07-31T09:21:25;1.70;;;1.42;;
42096;SDS011;27754;45.414;11.084;2023-07-31T09:23:54;3.58;;;1.80;;
42096;SDS011;27754;45.414;11.084;2023-07-31T09:26:34;4.68;;;1.83;;
42096;SDS011;27754;45.414;11.084;2023-07-31T09:29:06;2.17;;;1.52;;
42096;SDS011;27754;45.414;11.084;2023-07-31T09:31:44;2.17;;;1.50;;
42096;SDS011;27754;45.414;11.084;2023-07-31T09:34:12;4.40;;;1.50;;
42096;SDS011;27754;45.414;11.084;2023-07-31T09:36:41;2.45;;;1.40;;
42096;SDS011;27754;45.414;11.084;2023-07-31T09:39:15;2.45;;;1.40;;
42096;SDS011;27754;45.414;11.084;2023-07-31T09:41:44;5.05;;;2.00;;
42096;SDS011;27754;45.414;11.084;2023-07-31T09:44:20;2.95;;;1.50;;
42096;SDS011;27754;45.414;11.084;2023-07-31T09:46:47;2.47;;;1.50;;
42096;SDS011;27754;45.414;11.084;2023-07-31T09:49:15;2.33;;;1.60;;
42096;SDS011;27754;45.414;11.084;2023-07-31T09:51:42;1.98;;;1.48;;
42096;SDS011;27754;45.414;11.084;2023-07-31T09:56:39;2.50;;;1.42;;
42096;SDS011;27754;45.414;11.084;2023-07-31T09:59:12;5.85;;;1.55;;
42096;SDS011;27754;45.414;11.084;2023-07-31T10:01:41;4.63;;;1.80;;
42096;SDS011;27754;45.414;11.084;2023-07-31T10:04:09;3.60;;;1.60;;
42096;SDS011;27754;45.414;11.084;2023-07-31T10:06:37;2.55;;;1.45;;
42096;SDS011;27754;45.414;11.084;2023-07-31T10:09:08;3.28;;;2.05;;
42096;SDS011;27754;45.414;11.084;2023-07-31T10:11:59;2.63;;;1.80;;
42096;SDS011;27754;45.414;11.084;2023-07-31T10:14:29;1.98;;;1.50;;
42096;SDS011;27754;45.414;11.084;2023-07-31T10:16:57;3.00;;;1.50;;
42096;SDS011;27754;45.414;11.084;2023-07-31T10:19:25;2.33;;;1.67;;
42096;SDS011;27754;45.414;11.084;2023-07-31T10:21:53;2.70;;;1.65;;
42096;SDS011;27754;45.414;11.084;2023-07-31T10:24:23;3.97;;;2.05;;
42096;SDS011;27754;45.414;11.084;2023-07-31T10:26:51;2.30;;;1.70;;
42096;SDS011;27754;45.414;11.084;2023-07-31T10:29:19;5.65;;;2.17;;
42096;SDS011;27754;45.414;11.084;2023-07-31T10:31:48;3.08;;;1.80;;
42096;SDS011;27754;45.414;11.084;2023-07-31T10:34:16;3.25;;;1.80;;
42096;SDS011;27754;45.414;11.084;2023-07-31T10:36:44;4.40;;;1.70;;
42096;SDS011;27754;45.414;11.084;2023-07-31T10:42:09;4.00;;;1.75;;
42096;SDS011;27754;45.414;11.084;2023-07-31T10:44:37;2.72;;;1.70;;
42096;SDS011;27754;45.414;11.084;2023-07-31T10:47:04;4.53;;;1.73;;
42096;SDS011;27754;45.414;11.084;2023-07-31T10:49:33;3.10;;;1.50;;
42096;SDS011;27754;45.414;11.084;2023-07-31T10:52:02;2.35;;;1.77;;
42096;SDS011;27754;45.414;11.084;2023-07-31T10:54:30;3.53;;;1.70;;
42096;SDS011;27754;45.414;11.084;2023-07-31T10:56:57;6.38;;;1.80;;
42096;SDS011;27754;45.414;11.084;2023-07-31T10:59:27;1.98;;;1.50;;
42096;SDS011;27754;45.414;11.084;2023-07-31T11:02:00;3.03;;;1.60;;
42096;SDS011;27754;45.414;11.084;2023-07-31T11:04:30;2.65;;;1.58;;
42096;SDS011;27754;45.414;11.084;2023-07-31T11:07:00;4.07;;;1.50;;
42096;SDS011;27754;45.414;11.084;2023-07-31T11:09:31;1.63;;;1.50;;
42096;SDS011;27754;45.414;11.084;2023-07-31T11:11:59;7.10;;;1.85;;
42096;SDS011;27754;45.414;11.084;2023-07-31T11:14:26;2.45;;;1.60;;
42096;SDS011;27754;45.414;11.084;2023-07-31T11:16:53;3.13;;;1.40;;
42096;SDS011;27754;45.414;11.084;2023-07-31T11:19:21;2.40;;;1.50;;
42096;SDS011;27754;45.414;11.084;2023-07-31T11:21:50;7.60;;;1.83;;
42096;SDS011;27754;45.414;11.084;2023-07-31T11:24:19;2.45;;;1.55;;
42096;SDS011;27754;45.414;11.084;2023-07-31T11:26:53;4.18;;;2.00;;
42096;SDS011;27754;45.414;11.084;2023-07-31T11:29:20;4.40;;;1.67;;
42096;SDS011;27754;45.414;11.084;2023-07-31T11:31:53;2.17;;;1.50;;
42096;SDS011;27754;45.414;11.084;2023-07-31T11:34:20;2.47;;;1.63;;
42096;SDS011;27754;45.414;11.084;2023-07-31T11:36:54;3.92;;;1.48;;
42096;SDS011;27754;45.414;11.084;2023-07-31T11:39:21;2.80;;;1.42;;
42096;SDS011;27754;45.414;11.084;2023-07-31T11:41:48;4.45;;;1.83;;
42096;SDS011;27754;45.414;11.084;2023-07-31T11:44:16;4.82;;;1.55;;
42096;SDS011;27754;45.414;11.084;2023-07-31T11:46:56;4.85;;;1.70;;
42096;SDS011;27754;45.414;11.084;2023-07-31T11:49:24;3.55;;;1.67;;
42096;SDS011;27754;45.414;11.084;2023-07-31T11:51:51;2.75;;;1.58;;
42096;SDS011;27754;45.414;11.084;2023-07-31T11:54:19;2.45;;;1.35;;
42096;SDS011;27754;45.414;11.084;2023-07-31T11:56:46;2.38;;;1.30;;
42096;SDS011;27754;45.414;11.084;2023-07-31T11:59:13;5.13;;;1.80;;
42096;SDS011;27754;45.414;11.084;2023-07-31T12:01:40;11.27;;;2.25;;
42096;SDS011;27754;45.414;11.084;2023-07-31T12:04:07;3.08;;;1.30;;
42096;SDS011;27754;45.414;11.084;2023-07-31T12:06:35;4.65;;;1.60;;
42096;SDS011;27754;45.414;11.084;2023-07-31T12:09:03;3.78;;;1.60;;
42096;SDS011;27754;45.414;11.084;2023-07-31T12:11:42;6.50;;;2.53;;
42096;SDS011;27754;45.414;11.084;2023-07-31T12:16:56;3.95;;;1.52;;
42096;SDS011;27754;45.414;11.084;2023-07-31T12:19:25;5.22;;;1.70;;
42096;SDS011;27754;45.414;11.084;2023-07-31T12:21:56;4.07;;;1.73;;
42096;SDS011;27754;45.414;11.084;2023-07-31T12:24:28;1.70;;;1.38;;
42096;SDS011;27754;45.414;11.084;2023-07-31T12:26:55;4.32;;;1.50;;
42096;SDS011;27754;45.414;11.084;2023-07-31T12:29:22;1.95;;;1.45;;
42096;SDS011;27754;45.414;11.084;2023-07-31T12:31:49;3.22;;;1.40;;
42096;SDS011;27754;45.414;11.084;2023-07-31T12:34:17;3.08;;;1.42;;
42096;SDS011;27754;45.414;11.084;2023-07-31T12:36:45;3.33;;;1.55;;
42096;SDS011;27754;45.414;11.084;2023-07-31T12:39:12;8.30;;;1.50;;
42096;SDS011;27754;45.414;11.084;2023-07-31T12:41:39;6.30;;;3.42;;
42096;SDS011;27754;45.414;11.084;2023-07-31T12:44:06;3.28;;;1.52;;
42096;SDS011;27754;45.414;11.084;2023-07-31T12:46:33;2.75;;;1.50;;
42096;SDS011;27754;45.414;11.084;2023-07-31T12:49:00;2.85;;;1.75;;
42096;SDS011;27754;45.414;11.084;2023-07-31T12:51:28;3.83;;;1.88;;
42096;SDS011;27754;45.414;11.084;2023-07-31T12:53:55;1.88;;;1.48;;
42096;SDS011;27754;45.414;11.084;2023-07-31T12:56:22;2.17;;;1.42;;
42096;SDS011;27754;45.414;11.084;2023-07-31T12:58:49;3.88;;;1.92;;
42096;SDS011;27754;45.414;11.084;2023-07-31T13:01:16;4.38;;;1.63;;
42096;SDS011;27754;45.414;11.084;2023-07-31T13:03:44;2.75;;;1.70;;
42096;SDS011;27754;45.414;11.084;2023-07-31T13:06:11;3.75;;;1.50;;
42096;SDS011;27754;45.414;11.084;2023-07-31T13:08:38;5.50;;;1.65;;
42096;SDS011;27754;45.414;11.084;2023-07-31T13:11:05;2.78;;;1.80;;
42096;SDS011;27754;45.414;11.084;2023-07-31T13:13:32;7.03;;;1.80;;
42096;SDS011;27754;45.414;11.084;2023-07-31T13:15:59;3.00;;;1.55;;
42096;SDS011;27754;45.414;11.084;2023-07-31T13:18:26;2.58;;;1.58;;
42096;SDS011;27754;45.414;11.084;2023-07-31T13:20:53;3.40;;;1.95;;
42096;SDS011;27754;45.414;11.084;2023-07-31T13:23:20;4.65;;;1.73;;
42096;SDS011;27754;45.414;11.084;2023-07-31T13:25:48;2.75;;;1.55;;
42096;SDS011;27754;45.414;11.084;2023-07-31T13:28:15;3.17;;;1.50;;
42096;SDS011;27754;45.414;11.084;2023-07-31T13:30:42;3.60;;;1.80;;
42096;SDS011;27754;45.414;11.084;2023-07-31T13:33:09;2.28;;;1.77;;
42096;SDS011;27754;45.414;11.084;2023-07-31T13:35:55;3.38;;;1.70;;
42096;SDS011;27754;45.414;11.084;2023-07-31T13:38:22;3.00;;;1.58;;
42096;SDS011;27754;45.414;11.084;2023-07-31T13:40:49;5.45;;;1.98;;
42096;SDS011;27754;45.414;11.084;2023-07-31T13:43:16;4.80;;;2.60;;
42096;SDS011;27754;45.414;11.084;2023-07-31T13:45:43;2.78;;;1.70;;
42096;SDS011;27754;45.414;11.084;2023-07-31T13:48:10;2.33;;;1.63;;
42096;SDS011;27754;45.414;11.084;2023-07-31T13:50:37;2.65;;;1.63;;
42096;SDS011;27754;45.414;11.084;2023-07-31T13:53:04;2.03;;;1.52;;
42096;SDS011;27754;45.414;11.084;2023-07-31T13:55:31;1.85;;;1.50;;
42096;SDS011;27754;45.414;11.084;2023-07-31T13:57:58;2.83;;;1.88;;
42096;SDS011;27754;45.414;11.084;2023-07-31T14:00:25;2.35;;;1.80;;
42096;SDS011;27754;45.414;11.084;2023-07-31T14:02:52;2.95;;;1.85;;
42096;SDS011;27754;45.414;11.084;2023-07-31T14:05:19;4.40;;;1.95;;
42096;SDS011;27754;45.414;11.084;2023-07-31T14:07:46;2.40;;;1.60;;
42096;SDS011;27754;45.414;11.084;2023-07-31T14:10:13;2.55;;;1.70;;
42096;SDS011;27754;45.414;11.084;2023-07-31T14:12:40;2.83;;;1.80;;
42096;SDS011;27754;45.414;11.084;2023-07-31T14:15:09;2.92;;;1.75;;
42096;SDS011;27754;45.414;11.084;2023-07-31T14:17:36;3.38;;;1.70;;
42096;SDS011;27754;45.414;11.084;2023-07-31T14:20:04;8.00;;;1.67;;
42096;SDS011;27754;45.414;11.084;2023-07-31T14:22:32;2.58;;;1.63;;
42096;SDS011;27754;45.414;11.084;2023-07-31T14:25:00;3.28;;;1.50;;
42096;SDS011;27754;45.414;11.084;2023-07-31T14:27:28;3.65;;;1.90;;
42096;SDS011;27754;45.414;11.084;2023-07-31T14:29:55;4.28;;;1.50;;
42096;SDS011;27754;45.414;11.084;2023-07-31T14:32:22;4.80;;;2.05;;
42096;SDS011;27754;45.414;11.084;2023-07-31T14:34:51;3.78;;;1.90;;
42096;SDS011;27754;45.414;11.084;2023-07-31T14:37:19;6.22;;;1.85;;
42096;SDS011;27754;45.414;11.084;2023-07-31T14:39:46;2.92;;;1.70;;
42096;SDS011;27754;45.414;11.084;2023-07-31T14:42:13;3.72;;;2.05;;
42096;SDS011;27754;45.414;11.084;2023-07-31T14:44:40;5.32;;;2.50;;
42096;SDS011;27754;45.414;11.084;2023-07-31T14:47:07;2.08;;;1.48;;
42096;SDS011;27754;45.414;11.084;2023-07-31T14:49:34;2.42;;;1.65;;
42096;SDS011;27754;45.414;11.084;2023-07-31T14:52:01;3.33;;;1.60;;
42096;SDS011;27754;45.414;11.084;2023-07-31T14:54:28;3.85;;;1.60;;